createdAt,value
2023-04-20T00:01:00.120Z,8.23
2023-04-20T00:03:27.708Z,6.37
2023-04-20T00:05:55.112Z,9.07
2023-04-20T00:08:21.770Z,9.47
2023-04-20T00:10:48.436Z,9.00
2023-04-20T00:13:15.146Z,6.10
2023-04-20T00:15:41.919Z,8.97
2023-04-20T00:18:08.655Z,6.80
2023-04-20T00:20:35.788Z,6.83
2023-04-20T00:23:02.636Z,6.50
2023-04-20T00:25:30.686Z,8.40
2023-04-20T00:27:57.541Z,5.60
2023-04-20T00:30:24.485Z,5.87
2023-04-20T00:32:51.701Z,8.27
2023-04-20T00:35:18.520Z,8.03
2023-04-20T00:37:45.251Z,5.03
2023-04-20T00:40:12.093Z,5.13
2023-04-20T00:42:40.833Z,5.57
2023-04-20T00:45:08.454Z,5.90
2023-04-20T00:47:37.456Z,5.87
2023-04-20T00:50:04.310Z,6.47
2023-04-20T00:52:31.275Z,5.33
2023-04-20T00:54:58.539Z,7.20
2023-04-20T00:57:25.989Z,3.43
2023-04-20T00:59:53.435Z,5.77
2023-04-20T01:02:22.463Z,6.27
2023-04-20T01:04:49.224Z,6.13
2023-04-20T01:07:16.197Z,7.03
2023-04-20T01:09:43.231Z,4.60
2023-04-20T01:12:10.157Z,4.77
2023-04-20T01:14:37.088Z,5.10
2023-04-20T01:17:04.776Z,6.13
2023-04-20T01:19:32.096Z,5.67
2023-04-20T01:21:58.838Z,7.47
2023-04-20T01:24:25.675Z,4.87
2023-04-20T01:26:52.493Z,6.73
2023-04-20T01:29:19.291Z,7.70
2023-04-20T01:31:46.274Z,4.80
2023-04-20T01:34:13.084Z,4.20
2023-04-20T01:36:39.764Z,8.00
2023-04-20T01:39:07.296Z,10.07
2023-04-20T01:41:34.006Z,8.30
2023-04-20T01:44:00.869Z,4.27
2023-04-20T01:46:27.604Z,6.80
2023-04-20T01:48:54.313Z,5.37
2023-04-20T01:51:20.995Z,6.10
2023-04-20T01:53:47.663Z,4.67
2023-04-20T01:56:14.362Z,5.70
2023-04-20T01:58:41.082Z,6.07
2023-04-20T02:01:08.119Z,5.33
2023-04-20T02:03:34.934Z,5.93
2023-04-20T02:06:01.882Z,7.60
2023-04-20T02:08:30.066Z,6.70
2023-04-20T02:10:56.750Z,6.13
2023-04-20T02:13:23.981Z,6.90
2023-04-20T02:15:50.719Z,7.33
2023-04-20T02:18:17.545Z,7.47
2023-04-20T02:20:44.716Z,6.37
2023-04-20T02:23:12.215Z,7.90
2023-04-20T02:25:38.902Z,5.23
2023-04-20T02:28:05.804Z,7.67
2023-04-20T02:30:32.524Z,4.03
2023-04-20T02:32:59.557Z,4.83
2023-04-20T02:35:26.411Z,6.27
2023-04-20T02:37:53.187Z,4.67
2023-04-20T02:40:20.034Z,5.87
2023-04-20T02:42:47.116Z,4.80
2023-04-20T02:45:14.204Z,5.43
2023-04-20T02:47:43.602Z,5.23
2023-04-20T02:50:12.799Z,7.07
2023-04-20T02:52:57.989Z,5.80
2023-04-20T02:55:24.951Z,3.43
2023-04-20T02:57:55.753Z,5.03
2023-04-20T03:00:32.855Z,5.97
2023-04-20T03:03:08.078Z,4.40
2023-04-20T03:05:35.018Z,3.77
2023-04-20T03:08:02.277Z,5.03
2023-04-20T03:10:28.976Z,6.57
2023-04-20T03:13:00.275Z,3.93
2023-04-20T03:15:32.155Z,4.00
2023-04-20T03:18:13.779Z,5.10
2023-04-20T03:20:41.516Z,4.03
2023-04-20T03:23:09.096Z,6.93
2023-04-20T03:25:36.178Z,4.83
2023-04-20T03:28:12.392Z,8.27
2023-04-20T03:30:40.964Z,4.77
2023-04-20T03:33:13.721Z,5.43
2023-04-20T03:35:40.522Z,7.10
2023-04-20T03:38:07.204Z,6.20
2023-04-20T03:40:34.109Z,7.17
2023-04-20T03:43:00.999Z,4.47
2023-04-20T03:45:28.479Z,4.70
2023-04-20T03:47:55.402Z,5.67
2023-04-20T03:50:22.278Z,7.83
2023-04-20T03:52:49.484Z,6.90
2023-04-20T03:55:16.502Z,6.43
2023-04-20T03:57:49.224Z,4.17
2023-04-20T04:00:16.640Z,6.30
2023-04-20T04:02:46.913Z,4.13
2023-04-20T04:05:18.561Z,6.43
2023-04-20T04:07:45.260Z,5.20
2023-04-20T04:10:14.111Z,5.50
2023-04-20T04:12:40.833Z,6.07
2023-04-20T04:15:07.978Z,4.93
2023-04-20T04:17:41.052Z,3.97
2023-04-20T04:20:11.629Z,4.30
2023-04-20T04:22:38.474Z,4.70
2023-04-20T04:25:24.237Z,5.33
2023-04-20T04:27:51.602Z,3.97
2023-04-20T04:30:20.074Z,5.37
2023-04-20T04:32:49.188Z,5.27
2023-04-20T04:35:16.659Z,4.30
2023-04-20T04:37:43.619Z,8.00
2023-04-20T04:40:11.126Z,4.63
2023-04-20T04:42:38.786Z,4.93
2023-04-20T04:45:07.564Z,6.70
2023-04-20T04:47:41.370Z,6.67
2023-04-20T04:50:10.671Z,6.83
2023-04-20T04:52:37.409Z,4.87
2023-04-20T04:55:08.431Z,7.03
2023-04-20T04:57:35.939Z,5.27
2023-04-20T05:00:02.702Z,5.03
2023-04-20T05:02:30.690Z,7.13
2023-04-20T05:04:58.246Z,7.03
2023-04-20T05:07:24.989Z,5.50
2023-04-20T05:09:52.302Z,6.53
2023-04-20T05:12:19.602Z,7.13
2023-04-20T05:14:46.389Z,8.40
2023-04-20T05:17:13.080Z,6.80
2023-04-20T05:19:39.692Z,10.40
2023-04-20T05:22:06.371Z,8.43
2023-04-20T05:24:33.243Z,8.10
2023-04-20T05:27:00.674Z,7.10
2023-04-20T05:29:27.384Z,8.63
2023-04-20T05:31:54.071Z,9.17
2023-04-20T05:34:20.767Z,8.70
2023-04-20T05:36:48.104Z,9.30
2023-04-20T05:39:14.753Z,7.20
2023-04-20T05:41:43.093Z,10.63
2023-04-20T05:44:09.756Z,11.13
2023-04-20T05:46:36.403Z,7.43
2023-04-20T05:49:03.073Z,11.40
2023-04-20T05:51:33.609Z,7.80
2023-04-20T05:54:01.460Z,7.83
2023-04-20T05:56:28.212Z,6.63
2023-04-20T05:58:55.565Z,7.33
2023-04-20T06:01:22.238Z,9.93
2023-04-20T06:03:49.702Z,11.23
2023-04-20T06:06:16.853Z,7.40
2023-04-20T06:08:43.834Z,5.30
2023-04-20T06:11:10.621Z,8.43
2023-04-20T06:13:37.317Z,7.43
2023-04-20T06:16:04.173Z,6.70
2023-04-20T06:18:30.909Z,8.13
2023-04-20T06:20:58.645Z,8.13
2023-04-20T06:23:25.411Z,8.93
2023-04-20T06:25:52.055Z,7.17
2023-04-20T06:28:18.792Z,8.83
2023-04-20T06:30:45.597Z,8.33
2023-04-20T06:33:17.250Z,8.80
2023-04-20T06:35:44.185Z,8.20
2023-04-20T06:38:11.308Z,8.37
2023-04-20T06:40:38.994Z,7.77
2023-04-20T06:43:05.831Z,10.77
2023-04-20T06:45:34.065Z,9.97
2023-04-20T06:48:01.068Z,10.90
2023-04-20T06:50:27.858Z,10.67
2023-04-20T06:52:54.550Z,10.33
2023-04-20T06:55:21.433Z,13.63
2023-04-20T06:57:48.208Z,10.73
2023-04-20T07:00:15.649Z,11.10
2023-04-20T07:02:46.344Z,11.87
2023-04-20T07:05:13.669Z,12.27
2023-04-20T07:07:40.729Z,13.30
2023-04-20T07:10:08.520Z,10.57
2023-04-20T07:12:36.758Z,13.53
2023-04-20T07:15:07.693Z,11.80
2023-04-20T07:17:34.937Z,11.07
2023-04-20T07:20:10.463Z,9.23
2023-04-20T07:22:37.832Z,13.40
2023-04-20T07:25:05.531Z,11.47
2023-04-20T07:27:39.835Z,11.27
2023-04-20T07:30:09.045Z,7.90
2023-04-20T07:32:36.362Z,10.30
2023-04-20T07:35:03.737Z,11.77
2023-04-20T07:37:34.227Z,10.27
2023-04-20T07:40:02.191Z,10.43
2023-04-20T07:42:29.871Z,10.17
2023-04-20T07:44:56.564Z,8.27
2023-04-20T07:47:23.290Z,12.40
2023-04-20T07:49:50.047Z,10.63
2023-04-20T07:52:18.531Z,12.23
2023-04-20T07:54:45.811Z,12.53
2023-04-20T07:57:12.657Z,11.53
2023-04-20T07:59:40.883Z,9.40
2023-04-20T08:02:09.028Z,11.00
2023-04-20T08:04:37.494Z,10.30
2023-04-20T08:07:04.615Z,11.07
2023-04-20T08:09:31.558Z,10.63
2023-04-20T08:12:00.755Z,10.60
2023-04-20T08:14:27.602Z,14.73
2023-04-20T08:16:54.423Z,15.20
2023-04-20T08:19:21.521Z,14.87
2023-04-20T08:21:48.688Z,12.17
2023-04-20T08:24:15.959Z,13.73
2023-04-20T08:26:43.931Z,15.47
2023-04-20T08:29:10.945Z,10.30
2023-04-20T08:31:37.853Z,13.43
2023-04-20T08:34:04.976Z,12.50
2023-04-20T08:36:32.575Z,14.57
2023-04-20T08:39:06.411Z,12.27
2023-04-20T08:41:33.520Z,12.07
2023-04-20T08:44:00.584Z,14.87
2023-04-20T08:46:27.622Z,15.67
2023-04-20T08:48:57.435Z,13.57
2023-04-20T08:51:24.650Z,12.70
2023-04-20T08:53:51.808Z,15.20
2023-04-20T08:56:18.704Z,12.23
2023-04-20T08:58:45.628Z,14.37
2023-04-20T09:01:15.551Z,14.87
2023-04-20T09:03:44.722Z,14.27
2023-04-20T09:06:15.510Z,14.27
2023-04-20T09:08:43.649Z,16.37
2023-04-20T09:11:23.008Z,11.77
2023-04-20T09:14:07.351Z,13.67
2023-04-20T09:16:40.243Z,12.70
2023-04-20T09:19:09.386Z,13.07
2023-04-20T09:21:36.841Z,14.97
2023-04-20T09:24:06.715Z,11.77
2023-04-20T09:26:34.778Z,11.80
2023-04-20T09:29:05.072Z,12.90
2023-04-20T09:31:31.975Z,14.60
2023-04-20T09:34:00.735Z,12.97
2023-04-20T09:36:43.787Z,16.33
2023-04-20T09:39:12.028Z,13.30
2023-04-20T09:41:39.874Z,17.10
2023-04-20T09:44:07.815Z,14.33
2023-04-20T09:46:35.643Z,15.60
2023-04-20T09:49:06.369Z,15.30
2023-04-20T09:51:37.190Z,13.77
2023-04-20T09:54:05.209Z,11.53
2023-04-20T09:56:33.642Z,12.87
2023-04-20T09:59:01.326Z,12.27
2023-04-20T10:01:32.474Z,12.30
2023-04-20T10:04:01.044Z,10.43
2023-04-20T10:06:30.848Z,11.03
2023-04-20T10:08:57.936Z,10.80
2023-04-20T10:11:31.445Z,14.30
2023-04-20T10:14:17.834Z,10.13
2023-04-20T10:16:45.823Z,10.63
2023-04-20T10:19:12.845Z,8.83
2023-04-20T10:21:47.597Z,10.83
2023-04-20T10:24:14.686Z,10.17
2023-04-20T10:26:48.969Z,11.20
2023-04-20T10:29:28.601Z,14.47
2023-04-20T10:31:56.047Z,13.07
2023-04-20T10:34:36.263Z,11.23
2023-04-20T10:37:09.983Z,11.67
2023-04-20T10:39:38.240Z,11.23
2023-04-20T10:42:05.097Z,8.80
2023-04-20T10:44:33.278Z,7.87
2023-04-20T10:47:00.133Z,6.07
2023-04-20T10:49:27.705Z,6.00
2023-04-20T10:51:57.471Z,5.50
2023-04-20T10:54:24.442Z,6.60
2023-04-20T10:56:52.043Z,8.50
2023-04-20T10:59:20.080Z,4.63
2023-04-20T11:01:48.071Z,6.53
2023-04-20T11:04:18.467Z,5.17
2023-04-20T11:06:47.031Z,4.17
2023-04-20T11:09:21.030Z,3.73
2023-04-20T11:11:58.295Z,3.43
2023-04-20T11:14:25.103Z,2.80
2023-04-20T11:16:52.728Z,2.53
2023-04-20T11:19:24.031Z,2.40
2023-04-20T11:21:50.888Z,3.40
2023-04-20T11:24:19.782Z,703.03
2023-04-20T11:26:49.966Z,610.87
2023-04-20T11:29:34.345Z,564.47
2023-04-20T11:32:02.667Z,3.37
2023-04-20T11:34:29.773Z,1.70
2023-04-20T11:37:01.171Z,11.27
2023-04-20T11:39:29.938Z,14.20
2023-04-20T11:41:57.526Z,3.57
2023-04-20T11:44:26.146Z,2.87
2023-04-20T11:46:54.885Z,2.43
2023-04-20T11:49:22.111Z,2.40
2023-04-20T11:51:48.956Z,2.67
2023-04-20T11:54:15.802Z,3.70
2023-04-20T11:56:42.748Z,3.23
2023-04-20T11:59:09.598Z,8.10
2023-04-20T12:01:36.694Z,5.17
2023-04-20T12:04:04.468Z,10.60
2023-04-20T12:06:34.423Z,7.40
2023-04-20T12:09:01.383Z,5.43
2023-04-20T12:11:28.335Z,4.90
2023-04-20T12:13:55.946Z,6.23
2023-04-20T12:16:23.366Z,6.13
2023-04-20T12:18:50.220Z,2.97
2023-04-20T12:21:17.027Z,2.70
2023-04-20T12:23:44.547Z,2.80
2023-04-20T12:26:11.340Z,2.67
2023-04-20T12:28:38.211Z,2.43
2023-04-20T12:31:05.174Z,3.63
2023-04-20T12:33:32.343Z,2.73
2023-04-20T12:35:59.148Z,3.47
2023-04-20T12:38:26.064Z,3.33
2023-04-20T12:40:52.868Z,3.37
2023-04-20T12:43:19.858Z,3.57
2023-04-20T12:45:48.414Z,3.23
2023-04-20T12:48:15.892Z,3.40
2023-04-20T12:50:42.803Z,3.07
2023-04-20T12:53:09.584Z,2.77
2023-04-20T12:55:36.364Z,3.27
2023-04-20T12:58:03.179Z,2.27
2023-04-20T13:00:30.002Z,2.83
2023-04-20T13:02:57.030Z,2.77
2023-04-20T13:05:24.946Z,2.73
2023-04-20T13:07:52.068Z,3.23
2023-04-20T13:10:18.957Z,3.13
2023-04-20T13:12:45.921Z,2.53
2023-04-20T13:15:13.350Z,3.40
2023-04-20T13:17:40.246Z,3.03
2023-04-20T13:20:08.031Z,2.70
2023-04-20T13:22:37.223Z,3.00
2023-04-20T13:25:10.622Z,3.30
2023-04-20T13:27:37.618Z,2.83
2023-04-20T13:30:06.422Z,3.17
2023-04-20T13:32:33.691Z,3.70
2023-04-20T13:35:00.874Z,3.70
2023-04-20T13:37:27.699Z,3.23
2023-04-20T13:39:54.447Z,3.50
2023-04-20T13:42:21.380Z,3.43
2023-04-20T13:44:48.175Z,4.17
2023-04-20T13:47:15.112Z,4.97
2023-04-20T13:49:41.921Z,4.60
2023-04-20T13:52:09.049Z,5.00
2023-04-20T13:54:35.859Z,4.83
2023-04-20T13:57:02.646Z,5.27
2023-04-20T13:59:29.753Z,3.13
2023-04-20T14:01:56.443Z,5.47
2023-04-20T14:04:23.700Z,10.63
2023-04-20T14:06:50.931Z,6.00
2023-04-20T14:09:17.716Z,4.53
2023-04-20T14:11:45.007Z,5.33
2023-04-20T14:14:12.226Z,5.00
2023-04-20T14:16:48.742Z,7.90
2023-04-20T14:19:15.594Z,4.73
2023-04-20T14:21:44.323Z,5.80
2023-04-20T14:24:11.837Z,5.47
2023-04-20T14:26:38.778Z,6.33
2023-04-20T14:29:05.653Z,4.13
2023-04-20T14:31:32.956Z,5.73
2023-04-20T14:33:59.798Z,3.87
2023-04-20T14:36:27.500Z,3.70
2023-04-20T14:38:55.609Z,3.90
2023-04-20T14:41:22.496Z,4.10
2023-04-20T14:43:49.284Z,4.40
2023-04-20T14:46:16.329Z,4.90
2023-04-20T14:48:46.389Z,5.00
2023-04-20T14:51:13.713Z,4.10
2023-04-20T14:53:40.617Z,4.03
2023-04-20T14:56:07.473Z,6.40
2023-04-20T14:58:34.279Z,5.63
2023-04-20T15:01:01.130Z,4.80
2023-04-20T15:03:28.096Z,4.93
2023-04-20T15:05:59.371Z,4.23
2023-04-20T15:08:26.135Z,5.87
2023-04-20T15:10:56.668Z,6.30
2023-04-20T15:13:24.026Z,5.30
2023-04-20T15:15:57.017Z,4.93
2023-04-20T15:18:23.797Z,5.90
2023-04-20T15:20:51.803Z,8.13
2023-04-20T15:23:18.705Z,7.20
2023-04-20T15:25:45.417Z,5.17
2023-04-20T15:28:12.142Z,6.47
2023-04-20T15:30:38.838Z,4.87
2023-04-20T15:33:06.015Z,5.63
2023-04-20T15:35:33.454Z,5.27
2023-04-20T15:38:00.442Z,7.60
2023-04-20T15:40:27.848Z,4.30
2023-04-20T15:42:58.441Z,7.23
2023-04-20T15:45:25.251Z,4.37
2023-04-20T15:47:52.236Z,6.33
2023-04-20T15:50:19.185Z,5.00
2023-04-20T15:52:49.782Z,4.57
2023-04-20T15:55:16.970Z,7.87
2023-04-20T15:57:44.629Z,5.23
2023-04-20T16:00:12.195Z,7.03
2023-04-20T16:02:40.234Z,7.00
2023-04-20T16:05:07.428Z,5.60
2023-04-20T16:07:34.267Z,5.67
2023-04-20T16:10:02.292Z,7.37
2023-04-20T16:12:29.298Z,6.50
2023-04-20T16:14:57.461Z,6.63
2023-04-20T16:17:24.324Z,4.43
2023-04-20T16:19:51.179Z,9.37
2023-04-20T16:22:18.167Z,4.73
2023-04-20T16:24:45.382Z,2.93
2023-04-20T16:27:12.242Z,4.20
2023-04-20T16:29:39.042Z,4.13
2023-04-20T16:32:06.397Z,3.77
2023-04-20T16:34:33.301Z,6.33
2023-04-20T16:37:00.081Z,4.73
2023-04-20T16:39:29.033Z,5.30
2023-04-20T16:41:57.322Z,4.43
2023-04-20T16:44:24.413Z,4.47
2023-04-20T16:46:51.644Z,4.53
2023-04-20T16:49:18.534Z,4.53
2023-04-20T16:51:45.229Z,5.63
2023-04-20T16:54:13.001Z,3.87
2023-04-20T16:56:40.866Z,4.37
2023-04-20T16:59:08.158Z,4.90
2023-04-20T17:01:35.095Z,4.27
2023-04-20T17:04:02.334Z,4.87
2023-04-20T17:06:29.513Z,4.83
2023-04-20T17:09:01.510Z,7.23
2023-04-20T17:11:28.565Z,4.87
2023-04-20T17:13:55.493Z,6.63
2023-04-20T17:16:22.473Z,9.30
2023-04-20T17:18:49.184Z,6.77
2023-04-20T17:21:16.009Z,8.37
2023-04-20T17:23:42.944Z,9.63
2023-04-20T17:26:09.793Z,7.23
2023-04-20T17:28:36.689Z,10.90
2023-04-20T17:31:03.733Z,8.30
2023-04-20T17:33:30.941Z,7.87
2023-04-20T17:35:57.916Z,7.23
2023-04-20T17:38:24.678Z,10.67
2023-04-20T17:40:51.776Z,6.23
2023-04-20T17:43:19.138Z,7.50
2023-04-20T17:45:48.418Z,6.83
2023-04-20T17:48:15.176Z,7.83
2023-04-20T17:50:41.990Z,5.60
2023-04-20T17:53:08.988Z,6.93
2023-04-20T17:55:35.921Z,5.27
2023-04-20T17:58:02.936Z,5.57
2023-04-20T18:00:29.760Z,7.30
2023-04-20T18:02:56.815Z,7.20
2023-04-20T18:05:23.682Z,6.10
2023-04-20T18:07:50.741Z,5.93
2023-04-20T18:10:17.710Z,5.67
2023-04-20T18:12:45.132Z,5.97
2023-04-20T18:15:12.566Z,6.83
2023-04-20T18:17:39.445Z,8.27
2023-04-20T18:20:06.687Z,5.67
2023-04-20T18:22:53.612Z,6.90
2023-04-20T18:25:20.412Z,6.57
2023-04-20T18:27:47.231Z,5.87
2023-04-20T18:30:14.287Z,6.90
2023-04-20T18:32:41.131Z,6.27
2023-04-20T18:35:08.577Z,7.20
2023-04-20T18:37:35.369Z,8.20
2023-04-20T18:40:02.094Z,6.70
2023-04-20T18:42:28.942Z,7.27
2023-04-20T18:44:56.229Z,6.60
2023-04-20T18:47:25.970Z,7.83
2023-04-20T18:49:53.445Z,7.27
2023-04-20T18:52:20.545Z,6.50
2023-04-20T18:54:47.779Z,6.63
2023-04-20T18:57:14.747Z,7.03
2023-04-20T18:59:41.532Z,8.10
2023-04-20T19:02:10.378Z,7.40
2023-04-20T19:04:37.305Z,7.20
2023-04-20T19:07:04.071Z,6.40
2023-04-20T19:09:31.170Z,7.93
2023-04-20T19:11:58.657Z,7.07
2023-04-20T19:14:25.472Z,8.60
2023-04-20T19:16:52.266Z,8.83
2023-04-20T19:19:19.142Z,8.07
2023-04-20T19:21:45.986Z,8.10
2023-04-20T19:24:12.749Z,8.30
2023-04-20T19:26:39.737Z,8.53
2023-04-20T19:29:06.433Z,9.43
2023-04-20T19:31:37.693Z,8.77
2023-04-20T19:34:05.007Z,8.53
2023-04-20T19:36:32.384Z,8.30
2023-04-20T19:39:00.320Z,7.40
2023-04-20T19:41:28.370Z,9.93
2023-04-20T19:43:55.669Z,9.63
2023-04-20T19:46:22.647Z,10.30
2023-04-20T19:48:49.524Z,8.53
2023-04-20T19:51:16.247Z,10.17
2023-04-20T19:53:43.063Z,8.67
2023-04-20T19:56:09.891Z,11.07
2023-04-20T19:58:36.743Z,10.57
2023-04-20T20:01:04.016Z,7.10
2023-04-20T20:03:31.240Z,9.47
2023-04-20T20:05:58.167Z,9.13
2023-04-20T20:08:24.899Z,7.83
2023-04-20T20:10:51.651Z,8.47
2023-04-20T20:13:18.471Z,8.57
2023-04-20T20:15:45.246Z,9.53
2023-04-20T20:18:12.538Z,9.53
2023-04-20T20:20:39.434Z,10.63
2023-04-20T20:23:06.214Z,10.43
2023-04-20T20:25:35.057Z,9.77
2023-04-20T20:28:02.184Z,10.50
2023-04-20T20:30:29.069Z,10.17
2023-04-20T20:32:58.965Z,9.30
2023-04-20T20:35:26.469Z,10.30
2023-04-20T20:37:54.575Z,10.10
2023-04-20T20:40:24.800Z,9.03
2023-04-20T20:42:53.118Z,12.53
2023-04-20T20:45:20.271Z,10.50
2023-04-20T20:47:47.227Z,11.63
2023-04-20T20:50:15.255Z,9.93
2023-04-20T20:52:42.049Z,10.57
2023-04-20T20:55:09.544Z,10.63
2023-04-20T20:57:36.463Z,12.83
2023-04-20T21:00:07.759Z,11.80
2023-04-20T21:02:34.738Z,15.00
2023-04-20T21:05:01.633Z,12.87
2023-04-20T21:07:28.417Z,16.43
2023-04-20T21:09:55.223Z,16.23
2023-04-20T21:12:21.926Z,13.27
2023-04-20T21:14:51.432Z,13.40
2023-04-20T21:17:18.810Z,13.73
2023-04-20T21:19:45.818Z,16.00
2023-04-20T21:22:12.612Z,16.77
2023-04-20T21:24:39.389Z,13.87
2023-04-20T21:27:06.195Z,16.67
2023-04-20T21:29:33.031Z,16.87
2023-04-20T21:31:59.797Z,15.83
2023-04-20T21:34:27.216Z,15.07
2023-04-20T21:36:53.889Z,17.70
2023-04-20T21:39:20.816Z,17.23
2023-04-20T21:41:47.809Z,20.20
2023-04-20T21:44:14.569Z,19.70
2023-04-20T21:46:41.397Z,18.00
2023-04-20T21:49:08.275Z,13.70
2023-04-20T21:51:35.031Z,15.40
2023-04-20T21:54:01.755Z,26.77
2023-04-20T21:56:28.446Z,17.93
2023-04-20T21:58:55.182Z,17.80
2023-04-20T22:01:21.877Z,19.80
2023-04-20T22:03:48.645Z,19.50
2023-04-20T22:06:15.457Z,20.60
2023-04-20T22:08:42.280Z,22.33
2023-04-20T22:11:09.145Z,22.63
2023-04-20T22:13:36.148Z,21.57
2023-04-20T22:16:03.188Z,21.60
2023-04-20T22:18:30.050Z,19.43
2023-04-20T22:20:56.975Z,22.47
2023-04-20T22:23:23.801Z,20.20
2023-04-20T22:25:50.638Z,21.57
2023-04-20T22:28:17.412Z,21.60
2023-04-20T22:30:44.579Z,20.83
2023-04-20T22:33:11.324Z,21.47
2023-04-20T22:35:38.439Z,21.23
2023-04-20T22:38:05.309Z,22.23
2023-04-20T22:40:32.621Z,24.87
2023-04-20T22:42:59.782Z,18.77
2023-04-20T22:45:26.661Z,24.60
2023-04-20T22:47:53.506Z,21.90
2023-04-20T22:50:20.339Z,23.97
2023-04-20T22:52:47.161Z,24.07
2023-04-20T22:55:14.617Z,24.43
2023-04-20T22:57:41.347Z,22.83
2023-04-20T23:00:10.933Z,26.23
2023-04-20T23:02:38.151Z,27.63
2023-04-20T23:05:05.853Z,24.93
2023-04-20T23:07:33.359Z,28.10
2023-04-20T23:10:00.544Z,29.87
2023-04-20T23:12:29.673Z,27.83
2023-04-20T23:14:56.879Z,27.90
2023-04-20T23:17:23.764Z,29.80
2023-04-20T23:19:51.200Z,30.60
2023-04-20T23:22:18.057Z,26.73
2023-04-20T23:24:44.828Z,28.20
2023-04-20T23:27:11.532Z,30.67
2023-04-20T23:29:38.285Z,29.93
2023-04-20T23:32:05.160Z,30.83
2023-04-20T23:34:31.970Z,28.93
2023-04-20T23:36:58.767Z,31.97
2023-04-20T23:39:25.503Z,30.73
2023-04-20T23:41:52.668Z,31.80
2023-04-20T23:44:19.472Z,30.73
2023-04-20T23:46:46.550Z,31.73
2023-04-20T23:49:13.351Z,30.77
2023-04-20T23:51:40.020Z,32.37
2023-04-20T23:54:06.733Z,34.53
2023-04-20T23:56:33.475Z,30.70
2023-04-20T23:59:00.277Z,34.70
